createdAt,value
2017-07-07T00:00:17.074Z,0
2017-07-07T00:00:37.354Z,0
2017-07-07T00:00:57.636Z,0
2017-07-07T00:01:17.918Z,0
2017-07-07T00:01:38.184Z,0
2017-07-07T00:01:58.492Z,0
2017-07-07T00:02:18.792Z,0
2017-07-07T00:02:39.066Z,0
2017-07-07T00:02:59.379Z,0
2017-07-07T00:03:19.638Z,0
2017-07-07T00:03:39.938Z,0
2017-07-07T00:04:00.259Z,0
2017-07-07T00:04:20.552Z,0
2017-07-07T00:04:40.889Z,0
2017-07-07T00:05:01.164Z,0
2017-07-07T00:05:21.502Z,0
2017-07-07T00:05:41.788Z,0
2017-07-07T00:06:02.065Z,0
2017-07-07T00:06:22.403Z,0
2017-07-07T00:06:42.819Z,0
2017-07-07T00:07:03.099Z,0
2017-07-07T00:07:23.559Z,0
2017-07-07T00:07:44.114Z,0
2017-07-07T00:08:04.690Z,0
2017-07-07T00:08:25.197Z,0
2017-07-07T00:08:45.739Z,0
2017-07-07T00:09:07.191Z,0
2017-07-07T00:09:27.486Z,0
2017-07-07T00:09:47.897Z,0
2017-07-07T00:10:08.439Z,0
2017-07-07T00:10:28.728Z,0
2017-07-07T00:10:49.152Z,0
2017-07-07T00:11:09.560Z,0
2017-07-07T00:11:30.656Z,0
2017-07-07T00:11:50.931Z,0
2017-07-07T00:12:11.226Z,0
2017-07-07T00:12:31.541Z,0
2017-07-07T00:12:51.823Z,0
2017-07-07T00:13:12.125Z,0
2017-07-07T00:13:32.411Z,0
2017-07-07T00:13:52.693Z,0
2017-07-07T00:14:13.104Z,0
2017-07-07T00:14:33.371Z,0
2017-07-07T00:14:53.676Z,0
2017-07-07T00:15:14.664Z,0
2017-07-07T00:15:34.991Z,0
2017-07-07T00:15:55.272Z,0
2017-07-07T00:16:15.550Z,0
2017-07-07T00:16:35.823Z,0
2017-07-07T00:16:56.152Z,0
2017-07-07T00:17:16.470Z,0
2017-07-07T00:17:36.816Z,0
2017-07-07T00:17:57.105Z,0
2017-07-07T00:18:17.382Z,0
2017-07-07T00:18:37.652Z,0
2017-07-07T00:18:57.931Z,0
2017-07-07T00:19:18.204Z,0
2017-07-07T00:19:38.472Z,0
2017-07-07T00:19:58.777Z,0
2017-07-07T00:20:19.063Z,0
2017-07-07T00:20:39.383Z,0
2017-07-07T00:20:59.716Z,0
2017-07-07T00:21:20.006Z,0
2017-07-07T00:21:40.279Z,0
2017-07-07T00:22:00.543Z,0
2017-07-07T00:22:20.805Z,0
2017-07-07T00:22:41.080Z,0
2017-07-07T00:23:01.418Z,0
2017-07-07T00:23:21.747Z,0
2017-07-07T00:23:42.007Z,0
2017-07-07T00:24:02.320Z,0
2017-07-07T00:24:22.601Z,0
2017-07-07T00:24:42.903Z,0
2017-07-07T00:25:03.192Z,0
2017-07-07T00:25:23.559Z,0
2017-07-07T00:25:43.866Z,0
2017-07-07T00:26:04.215Z,0
2017-07-07T00:26:24.492Z,0
2017-07-07T00:26:44.752Z,0
2017-07-07T00:27:05.019Z,0
2017-07-07T00:27:25.306Z,0
2017-07-07T00:27:45.660Z,0
2017-07-07T00:28:05.936Z,0
2017-07-07T00:28:26.260Z,0
2017-07-07T00:28:46.533Z,0
2017-07-07T00:29:06.790Z,0
2017-07-07T00:29:27.146Z,0
2017-07-07T00:29:47.468Z,0
2017-07-07T00:30:07.797Z,0
2017-07-07T00:30:28.067Z,0
2017-07-07T00:30:48.341Z,0
2017-07-07T00:31:08.693Z,0
2017-07-07T00:31:28.974Z,0
2017-07-07T00:31:49.304Z,0
2017-07-07T00:32:09.586Z,0
2017-07-07T00:32:29.916Z,0
2017-07-07T00:32:50.239Z,0
2017-07-07T00:33:10.499Z,0
2017-07-07T00:33:30.781Z,0
2017-07-07T00:33:51.053Z,0
2017-07-07T00:34:11.324Z,0
2017-07-07T00:34:31.607Z,0
2017-07-07T00:34:51.906Z,0
2017-07-07T00:35:12.187Z,0
2017-07-07T00:35:32.466Z,0
2017-07-07T00:35:52.759Z,0
2017-07-07T00:36:13.034Z,0
2017-07-07T00:36:33.297Z,0
2017-07-07T00:36:53.601Z,0
2017-07-07T00:37:13.867Z,0
2017-07-07T00:37:34.134Z,0
2017-07-07T00:37:54.446Z,0
2017-07-07T00:38:14.720Z,0
2017-07-07T00:38:34.991Z,0
2017-07-07T00:38:55.268Z,0
2017-07-07T00:39:15.537Z,0
2017-07-07T00:39:35.883Z,0
2017-07-07T00:39:56.175Z,0
2017-07-07T00:40:16.447Z,0
2017-07-07T00:40:36.722Z,0
2017-07-07T00:40:57.009Z,0
2017-07-07T00:41:17.294Z,0
2017-07-07T00:41:37.579Z,0
2017-07-07T00:41:57.892Z,0
2017-07-07T00:42:18.225Z,0
2017-07-07T00:42:38.535Z,0
2017-07-07T00:42:58.830Z,0
2017-07-07T00:43:19.113Z,0
2017-07-07T00:43:39.389Z,0
2017-07-07T00:43:59.656Z,0
2017-07-07T00:44:19.945Z,0
2017-07-07T00:44:40.269Z,0
2017-07-07T00:45:00.540Z,0
2017-07-07T00:45:20.814Z,0
2017-07-07T00:45:41.127Z,0
2017-07-07T00:46:01.427Z,0
2017-07-07T00:46:21.695Z,0
2017-07-07T00:46:41.979Z,0
2017-07-07T00:47:02.293Z,0
2017-07-07T00:47:22.592Z,0
2017-07-07T00:47:42.847Z,0
2017-07-07T00:48:03.158Z,0
2017-07-07T00:48:23.484Z,0
2017-07-07T00:48:43.751Z,0
2017-07-07T00:49:04.016Z,0
2017-07-07T00:49:24.296Z,0
2017-07-07T00:49:44.549Z,0
2017-07-07T00:50:04.848Z,0
2017-07-07T00:50:25.108Z,0
2017-07-07T00:50:45.385Z,0
2017-07-07T00:51:05.683Z,0
2017-07-07T00:51:25.950Z,0
2017-07-07T00:51:46.205Z,0
2017-07-07T00:52:06.465Z,0
2017-07-07T00:52:26.742Z,0
2017-07-07T00:52:47.009Z,0
2017-07-07T00:53:07.320Z,0
2017-07-07T00:53:27.633Z,0
2017-07-07T00:53:47.885Z,0
2017-07-07T00:54:08.155Z,0
2017-07-07T00:54:28.419Z,0
2017-07-07T00:54:48.722Z,0
2017-07-07T00:55:09.024Z,0
2017-07-07T00:55:29.377Z,0
2017-07-07T00:55:49.605Z,0
2017-07-07T00:56:09.862Z,0
2017-07-07T00:56:30.122Z,0
2017-07-07T00:56:50.458Z,0
2017-07-07T00:57:10.842Z,0
2017-07-07T00:57:31.160Z,0
2017-07-07T00:57:51.429Z,0
2017-07-07T00:58:11.769Z,0
2017-07-07T00:58:32.075Z,0
2017-07-07T00:58:52.349Z,0
2017-07-07T00:59:12.608Z,0
2017-07-07T00:59:32.866Z,0
2017-07-07T00:59:53.128Z,0
2017-07-07T01:00:13.398Z,0
2017-07-07T01:00:33.659Z,0
2017-07-07T01:00:54.013Z,0
2017-07-07T01:01:14.333Z,0
2017-07-07T01:01:34.657Z,0
2017-07-07T01:01:55.688Z,0
2017-07-07T01:02:15.953Z,0
2017-07-07T01:02:36.295Z,0
2017-07-07T01:02:56.570Z,0
2017-07-07T01:03:16.839Z,0
2017-07-07T01:03:37.090Z,0
2017-07-07T01:03:57.376Z,0
2017-07-07T01:04:17.691Z,0
2017-07-07T01:04:37.983Z,0
2017-07-07T01:04:58.307Z,0
2017-07-07T01:05:18.576Z,0
2017-07-07T01:05:38.893Z,0
2017-07-07T01:05:59.122Z,0
2017-07-07T01:06:19.388Z,0
2017-07-07T01:06:39.693Z,0
2017-07-07T01:06:59.966Z,0
2017-07-07T01:07:20.227Z,0
2017-07-07T01:07:40.501Z,0
2017-07-07T01:08:00.826Z,0
2017-07-07T01:08:21.244Z,0
2017-07-07T01:08:41.521Z,0
2017-07-07T01:09:01.838Z,0
2017-07-07T01:09:22.108Z,0
2017-07-07T01:09:42.382Z,0
2017-07-07T01:10:02.644Z,0
2017-07-07T01:10:23.008Z,0
2017-07-07T01:10:43.276Z,0
2017-07-07T01:11:03.579Z,0
2017-07-07T01:11:23.923Z,0
2017-07-07T01:11:44.359Z,0
2017-07-07T01:12:04.638Z,0
2017-07-07T01:12:24.893Z,0
2017-07-07T01:12:45.215Z,0
2017-07-07T01:13:05.498Z,0
2017-07-07T01:13:25.773Z,0
2017-07-07T01:13:46.048Z,0
2017-07-07T01:14:06.349Z,0
2017-07-07T01:14:26.611Z,0
2017-07-07T01:14:46.887Z,0
2017-07-07T01:15:07.195Z,0
2017-07-07T01:15:27.475Z,0
2017-07-07T01:15:47.778Z,0
2017-07-07T01:16:08.078Z,0
2017-07-07T01:16:28.388Z,0
2017-07-07T01:16:48.917Z,0
2017-07-07T01:17:09.189Z,0
2017-07-07T01:17:29.496Z,0
2017-07-07T01:17:49.813Z,0
2017-07-07T01:18:10.144Z,0
2017-07-07T01:18:30.449Z,0
2017-07-07T01:18:50.707Z,0
2017-07-07T01:19:11.015Z,0
2017-07-07T01:19:31.294Z,0
2017-07-07T01:19:51.556Z,0
2017-07-07T01:20:11.854Z,0
2017-07-07T01:20:32.208Z,0
2017-07-07T01:20:52.552Z,0
2017-07-07T01:21:12.857Z,0
2017-07-07T01:21:33.133Z,0
2017-07-07T01:21:53.475Z,0
2017-07-07T01:22:13.809Z,0
2017-07-07T01:22:34.121Z,0
2017-07-07T01:22:54.426Z,0
2017-07-07T01:23:14.733Z,0
2017-07-07T01:23:34.982Z,0
2017-07-07T01:23:55.246Z,0
2017-07-07T01:24:15.563Z,0
2017-07-07T01:24:35.869Z,0
2017-07-07T01:24:56.122Z,0
2017-07-07T01:25:16.442Z,0
2017-07-07T01:25:36.782Z,0
2017-07-07T01:25:57.042Z,0
2017-07-07T01:26:17.322Z,0
2017-07-07T01:26:37.649Z,0
2017-07-07T01:26:57.909Z,0
2017-07-07T01:27:18.265Z,0
2017-07-07T01:27:38.644Z,0
2017-07-07T01:27:58.960Z,0
2017-07-07T01:28:19.271Z,0
2017-07-07T01:28:39.544Z,0
2017-07-07T01:28:59.818Z,0
2017-07-07T01:29:20.095Z,0
2017-07-07T01:29:40.450Z,0
2017-07-07T01:30:00.725Z,0
2017-07-07T01:30:21.011Z,0
2017-07-07T01:30:41.284Z,0
2017-07-07T01:31:01.555Z,0
2017-07-07T01:31:21.857Z,0
2017-07-07T01:31:42.180Z,0
2017-07-07T01:32:02.437Z,0
2017-07-07T01:32:22.724Z,0
2017-07-07T01:32:43.073Z,0
2017-07-07T01:33:03.331Z,0
2017-07-07T01:33:23.610Z,0
2017-07-07T01:33:43.875Z,0
2017-07-07T01:34:04.137Z,0
2017-07-07T01:34:24.421Z,0
2017-07-07T01:34:44.704Z,0
2017-07-07T01:35:05.047Z,0
2017-07-07T01:35:25.399Z,0
2017-07-07T01:35:45.694Z,0
2017-07-07T01:36:05.964Z,0
2017-07-07T01:36:26.265Z,0
2017-07-07T01:36:46.573Z,0
2017-07-07T01:37:06.934Z,0
2017-07-07T01:37:27.207Z,0
2017-07-07T01:37:47.556Z,0
2017-07-07T01:38:07.807Z,0
2017-07-07T01:38:28.085Z,0
2017-07-07T01:38:48.393Z,0
2017-07-07T01:39:08.664Z,0
2017-07-07T01:39:29.005Z,0
2017-07-07T01:39:49.224Z,0
2017-07-07T01:40:09.475Z,0
2017-07-07T01:40:29.771Z,0
2017-07-07T01:40:50.051Z,0
2017-07-07T01:41:10.306Z,0
2017-07-07T01:41:30.570Z,0
2017-07-07T01:41:50.909Z,0
2017-07-07T01:42:11.215Z,0
2017-07-07T01:42:31.488Z,0
2017-07-07T01:42:51.781Z,0
2017-07-07T01:43:12.083Z,0
2017-07-07T01:43:32.349Z,0
2017-07-07T01:43:52.643Z,0
2017-07-07T01:44:12.943Z,0
2017-07-07T01:44:33.244Z,0
2017-07-07T01:44:53.523Z,0
2017-07-07T01:45:13.868Z,0
2017-07-07T01:45:34.196Z,0
2017-07-07T01:45:54.480Z,0
2017-07-07T01:46:14.739Z,0
2017-07-07T01:46:35.048Z,0
2017-07-07T01:46:55.306Z,0
2017-07-07T01:47:15.584Z,0
2017-07-07T01:47:35.890Z,0
2017-07-07T01:47:56.781Z,0
2017-07-07T01:48:17.039Z,0
2017-07-07T01:48:37.349Z,0
2017-07-07T01:48:57.610Z,0
2017-07-07T01:49:17.880Z,0
2017-07-07T01:49:38.130Z,0
2017-07-07T01:49:58.453Z,0
2017-07-07T01:50:18.810Z,0
2017-07-07T01:50:39.067Z,0
2017-07-07T01:50:59.344Z,0
2017-07-07T01:51:19.618Z,0
2017-07-07T01:51:39.883Z,0
2017-07-07T01:52:00.141Z,0
2017-07-07T01:52:20.446Z,0
2017-07-07T01:52:40.728Z,0
2017-07-07T01:53:00.986Z,0
2017-07-07T01:53:21.306Z,0
2017-07-07T01:53:41.562Z,0
2017-07-07T01:54:01.819Z,0
2017-07-07T01:54:22.079Z,0
2017-07-07T01:54:42.355Z,0
2017-07-07T01:55:02.619Z,0
2017-07-07T01:55:22.900Z,0
2017-07-07T01:55:43.160Z,0
2017-07-07T01:56:03.479Z,0
2017-07-07T01:56:23.744Z,0
2017-07-07T01:56:44.080Z,0
2017-07-07T01:57:04.350Z,0
2017-07-07T01:57:24.645Z,0
2017-07-07T01:57:44.909Z,0
2017-07-07T01:58:05.256Z,0
2017-07-07T01:58:25.511Z,0
2017-07-07T01:58:45.765Z,0
2017-07-07T01:59:06.023Z,0
2017-07-07T01:59:26.287Z,0
2017-07-07T01:59:46.576Z,0
2017-07-07T02:00:06.840Z,0
2017-07-07T02:00:27.169Z,0
2017-07-07T02:00:47.431Z,0
2017-07-07T02:01:07.699Z,0
2017-07-07T02:01:28.010Z,0
2017-07-07T02:01:48.315Z,0
2017-07-07T02:02:08.635Z,0
2017-07-07T02:02:28.892Z,0
2017-07-07T02:02:49.168Z,0
2017-07-07T02:03:09.460Z,0
2017-07-07T02:03:29.770Z,0
2017-07-07T02:03:50.066Z,0
2017-07-07T02:04:10.389Z,0
2017-07-07T02:04:30.713Z,0
2017-07-07T02:04:51.027Z,0
2017-07-07T02:05:11.284Z,0
2017-07-07T02:05:31.579Z,0
2017-07-07T02:05:51.851Z,0
2017-07-07T02:06:12.139Z,0
2017-07-07T02:06:32.448Z,0
2017-07-07T02:06:52.723Z,0
2017-07-07T02:07:12.990Z,0
2017-07-07T02:07:33.327Z,0
2017-07-07T02:07:53.632Z,0
2017-07-07T02:08:13.920Z,0
2017-07-07T02:08:34.191Z,0
2017-07-07T02:08:54.493Z,0
2017-07-07T02:09:14.798Z,0
2017-07-07T02:09:35.107Z,0
2017-07-07T02:09:55.369Z,0
2017-07-07T02:10:15.643Z,0
2017-07-07T02:10:35.923Z,0
2017-07-07T02:10:56.189Z,0
2017-07-07T02:11:16.512Z,0
2017-07-07T02:11:36.829Z,0
2017-07-07T02:11:57.114Z,0
2017-07-07T02:12:17.380Z,0
2017-07-07T02:12:37.676Z,0
2017-07-07T02:12:57.936Z,0
2017-07-07T02:13:18.211Z,0
2017-07-07T02:13:38.485Z,0
2017-07-07T02:13:58.748Z,0
2017-07-07T02:14:19.018Z,0
2017-07-07T02:14:39.292Z,0
2017-07-07T02:14:59.551Z,0
2017-07-07T02:15:19.831Z,0
2017-07-07T02:15:40.091Z,0
2017-07-07T02:16:00.341Z,0
2017-07-07T02:16:20.604Z,0
2017-07-07T02:16:40.905Z,0
2017-07-07T02:17:01.785Z,0
2017-07-07T02:17:22.081Z,0
2017-07-07T02:17:42.339Z,0
2017-07-07T02:18:02.676Z,0
2017-07-07T02:18:22.937Z,0
2017-07-07T02:18:43.206Z,0
2017-07-07T02:19:03.556Z,0
2017-07-07T02:19:23.820Z,0
2017-07-07T02:19:44.124Z,0
2017-07-07T02:20:04.391Z,0
2017-07-07T02:20:24.724Z,0
2017-07-07T02:20:44.979Z,0
2017-07-07T02:21:05.257Z,0
2017-07-07T02:21:25.665Z,0
2017-07-07T02:21:45.919Z,0
2017-07-07T02:22:06.188Z,0
2017-07-07T02:22:26.492Z,0
2017-07-07T02:22:46.877Z,0
2017-07-07T02:23:07.155Z,0
2017-07-07T02:23:27.426Z,0
2017-07-07T02:23:47.714Z,0
2017-07-07T02:24:07.981Z,0
2017-07-07T02:24:28.257Z,0
2017-07-07T02:24:48.522Z,0
2017-07-07T02:25:08.798Z,0
2017-07-07T02:25:29.062Z,0
2017-07-07T02:25:49.335Z,0
2017-07-07T02:26:09.586Z,0
2017-07-07T02:26:29.845Z,0
2017-07-07T02:26:50.101Z,0
2017-07-07T02:27:10.378Z,0
2017-07-07T02:27:30.646Z,0
2017-07-07T02:27:50.897Z,0
2017-07-07T02:28:11.207Z,0
2017-07-07T02:28:31.471Z,0
2017-07-07T02:28:51.750Z,0
2017-07-07T02:29:12.021Z,0
2017-07-07T02:29:32.313Z,0
2017-07-07T02:29:52.578Z,0
2017-07-07T02:30:12.894Z,0
2017-07-07T02:30:33.192Z,0
2017-07-07T02:30:53.503Z,0
2017-07-07T02:31:13.804Z,0
2017-07-07T02:31:34.058Z,0
2017-07-07T02:31:54.374Z,0
2017-07-07T02:32:14.652Z,0
2017-07-07T02:32:34.929Z,0
2017-07-07T02:32:55.239Z,0
2017-07-07T02:33:15.533Z,0
2017-07-07T02:33:35.892Z,0
2017-07-07T02:33:56.202Z,0
2017-07-07T02:34:16.469Z,0
2017-07-07T02:34:36.747Z,0
2017-07-07T02:34:57.081Z,0
2017-07-07T02:35:17.336Z,0
2017-07-07T02:35:37.673Z,0
2017-07-07T02:35:57.989Z,0
2017-07-07T02:36:18.301Z,0
2017-07-07T02:36:38.624Z,0
2017-07-07T02:36:58.888Z,0
2017-07-07T02:37:19.170Z,0
2017-07-07T02:37:39.438Z,0
2017-07-07T02:37:59.780Z,0
2017-07-07T02:38:20.085Z,0
2017-07-07T02:38:40.353Z,0
2017-07-07T02:39:00.647Z,0
2017-07-07T02:39:20.995Z,0
2017-07-07T02:39:41.347Z,0
2017-07-07T02:40:01.693Z,0
2017-07-07T02:40:21.962Z,0
2017-07-07T02:40:42.336Z,0
2017-07-07T02:41:02.619Z,0
2017-07-07T02:41:22.949Z,0
2017-07-07T02:41:43.232Z,0
2017-07-07T02:42:03.499Z,0
2017-07-07T02:42:23.768Z,0
2017-07-07T02:42:44.036Z,0
2017-07-07T02:43:04.355Z,0
2017-07-07T02:43:24.619Z,0
2017-07-07T02:43:44.920Z,0
2017-07-07T02:44:05.237Z,0
2017-07-07T02:44:25.518Z,0
2017-07-07T02:44:45.826Z,0
2017-07-07T02:45:06.109Z,0
2017-07-07T02:45:26.375Z,0
2017-07-07T02:45:46.639Z,0
2017-07-07T02:46:06.949Z,0
2017-07-07T02:46:27.373Z,0
2017-07-07T02:46:47.679Z,0
2017-07-07T02:47:08.020Z,0
2017-07-07T02:47:28.345Z,0
2017-07-07T02:47:48.707Z,0
2017-07-07T02:48:09.014Z,0
2017-07-07T02:48:29.290Z,0
2017-07-07T02:48:49.645Z,0
2017-07-07T02:49:09.923Z,0
2017-07-07T02:49:30.229Z,0
2017-07-07T02:49:50.557Z,0
2017-07-07T02:50:10.928Z,0
2017-07-07T02:50:31.180Z,0
2017-07-07T02:50:51.486Z,0
2017-07-07T02:51:11.785Z,0
2017-07-07T02:51:32.070Z,0
2017-07-07T02:51:52.421Z,0
2017-07-07T02:52:12.698Z,0
2017-07-07T02:52:32.958Z,0
2017-07-07T02:52:53.283Z,0
2017-07-07T02:53:13.541Z,0
2017-07-07T02:53:33.848Z,0
2017-07-07T02:53:54.127Z,0
2017-07-07T02:54:14.390Z,0
2017-07-07T02:54:34.733Z,0
2017-07-07T02:54:55.007Z,0
2017-07-07T02:55:15.273Z,0
2017-07-07T02:55:35.542Z,0
2017-07-07T02:55:55.854Z,0
2017-07-07T02:56:16.156Z,0
2017-07-07T02:56:36.483Z,0
2017-07-07T02:56:56.764Z,0
2017-07-07T02:57:17.036Z,0
2017-07-07T02:57:37.337Z,0
2017-07-07T02:57:57.590Z,0
2017-07-07T02:58:17.894Z,0
2017-07-07T02:58:38.162Z,0
2017-07-07T02:58:58.440Z,0
2017-07-07T02:59:18.724Z,0
2017-07-07T02:59:38.989Z,0
2017-07-07T02:59:59.362Z,0
2017-07-07T03:00:19.673Z,0
2017-07-07T03:00:39.943Z,0
2017-07-07T03:01:00.209Z,0
2017-07-07T03:01:20.520Z,0
2017-07-07T03:01:40.773Z,0
2017-07-07T03:02:01.031Z,5
2017-07-07T03:02:21.382Z,5
2017-07-07T03:02:41.655Z,5
2017-07-07T03:03:01.974Z,5
2017-07-07T03:03:22.245Z,5
2017-07-07T03:03:42.562Z,5
2017-07-07T03:04:02.833Z,5
2017-07-07T03:04:23.103Z,5
2017-07-07T03:04:43.375Z,5
2017-07-07T03:05:03.691Z,5
2017-07-07T03:05:23.949Z,5
2017-07-07T03:05:44.306Z,5
2017-07-07T03:06:04.561Z,5
2017-07-07T03:06:24.921Z,5
2017-07-07T03:06:45.181Z,5
2017-07-07T03:07:05.483Z,5
2017-07-07T03:07:25.790Z,5
2017-07-07T03:07:46.069Z,5
2017-07-07T03:08:06.351Z,5
2017-07-07T03:08:26.658Z,5
2017-07-07T03:08:46.962Z,5
2017-07-07T03:09:07.266Z,5
2017-07-07T03:09:27.576Z,5
2017-07-07T03:09:47.886Z,5
2017-07-07T03:10:08.199Z,5
2017-07-07T03:10:28.474Z,5
2017-07-07T03:10:48.745Z,5
2017-07-07T03:11:09.006Z,5
2017-07-07T03:11:29.285Z,5
2017-07-07T03:11:49.583Z,5
2017-07-07T03:12:09.879Z,5
2017-07-07T03:12:30.142Z,5
2017-07-07T03:12:50.439Z,5
2017-07-07T03:13:10.753Z,5
2017-07-07T03:13:31.016Z,5
2017-07-07T03:13:51.272Z,5
2017-07-07T03:14:11.553Z,5
2017-07-07T03:14:31.851Z,10
2017-07-07T03:14:52.192Z,10
2017-07-07T03:15:12.457Z,10
2017-07-07T03:15:32.738Z,10
2017-07-07T03:15:53.009Z,10
2017-07-07T03:16:13.295Z,10
2017-07-07T03:16:33.548Z,10
2017-07-07T03:16:53.803Z,10
2017-07-07T03:17:14.065Z,10
2017-07-07T03:17:34.335Z,10
2017-07-07T03:17:54.674Z,10
2017-07-07T03:18:15.007Z,10
2017-07-07T03:18:35.271Z,10
2017-07-07T03:18:55.528Z,10
2017-07-07T03:19:15.831Z,10
2017-07-07T03:19:36.163Z,10
2017-07-07T03:19:56.444Z,10
2017-07-07T03:20:16.711Z,10
2017-07-07T03:20:37.041Z,10
2017-07-07T03:20:57.325Z,10
2017-07-07T03:21:17.610Z,10
2017-07-07T03:23:25.964Z,15
2017-07-07T03:23:46.712Z,15
2017-07-07T03:24:07.885Z,15
2017-07-07T03:24:28.223Z,15
2017-07-07T03:24:48.525Z,15
2017-07-07T03:25:08.824Z,15
2017-07-07T03:25:29.136Z,15
2017-07-07T03:25:49.480Z,15
2017-07-07T03:26:09.787Z,15
2017-07-07T03:26:30.132Z,15
2017-07-07T03:26:50.393Z,15
2017-07-07T03:27:10.703Z,15
2017-07-07T03:27:30.969Z,15
2017-07-07T03:27:51.255Z,15
2017-07-07T03:28:11.538Z,15
2017-07-07T03:28:31.905Z,15
2017-07-07T03:28:52.195Z,15
2017-07-07T03:29:12.537Z,15
2017-07-07T03:29:32.810Z,15
2017-07-07T03:29:53.098Z,15
2017-07-07T03:30:13.412Z,15
2017-07-07T03:30:33.718Z,15
2017-07-07T03:30:53.998Z,15
2017-07-07T03:31:14.256Z,15
2017-07-07T03:31:34.529Z,15
2017-07-07T03:31:54.799Z,15
2017-07-07T03:32:15.131Z,15
2017-07-07T03:32:35.379Z,15
2017-07-07T03:32:55.645Z,15
2017-07-07T03:33:15.954Z,15
2017-07-07T03:33:36.226Z,15
2017-07-07T03:33:56.512Z,15
2017-07-07T03:34:16.782Z,15
2017-07-07T03:34:37.044Z,15
2017-07-07T03:34:57.328Z,15
2017-07-07T03:35:17.598Z,15
2017-07-07T03:35:37.871Z,15
2017-07-07T03:35:58.171Z,15
2017-07-07T03:36:18.482Z,15
2017-07-07T03:36:38.795Z,15
2017-07-07T03:36:59.072Z,15
2017-07-07T03:37:19.344Z,15
2017-07-07T03:37:39.652Z,15
2017-07-07T03:38:00.017Z,15
2017-07-07T03:38:20.278Z,15
2017-07-07T03:38:40.547Z,15
2017-07-07T03:39:00.815Z,15
2017-07-07T03:39:21.073Z,15
2017-07-07T03:39:41.347Z,15
2017-07-07T03:40:01.610Z,15
2017-07-07T03:40:21.872Z,15
2017-07-07T03:40:42.147Z,15
2017-07-07T03:41:02.458Z,15
2017-07-07T03:41:22.745Z,20
2017-07-07T03:41:43.051Z,20
2017-07-07T03:42:03.336Z,20
2017-07-07T03:42:23.596Z,20
2017-07-07T03:42:43.872Z,20
2017-07-07T03:43:04.183Z,20
2017-07-07T03:43:24.561Z,20
2017-07-07T03:43:44.831Z,20
2017-07-07T03:44:05.131Z,20
2017-07-07T03:44:25.404Z,20
2017-07-07T03:44:45.733Z,20
2017-07-07T03:45:05.758Z,20
2017-07-07T03:45:26.034Z,20
2017-07-07T03:45:46.349Z,20
2017-07-07T03:46:06.653Z,20
2017-07-07T03:46:26.977Z,20
2017-07-07T03:46:47.251Z,20
2017-07-07T03:47:07.569Z,20
2017-07-07T03:47:27.874Z,20
2017-07-07T03:47:48.139Z,20
2017-07-07T03:48:08.401Z,20
2017-07-07T03:48:28.664Z,20
2017-07-07T03:48:48.933Z,20
2017-07-07T03:49:09.272Z,20
2017-07-07T03:49:29.540Z,20
2017-07-07T03:49:49.812Z,20
2017-07-07T03:50:10.120Z,20
2017-07-07T03:50:30.407Z,20
2017-07-07T03:50:50.664Z,20
2017-07-07T03:51:10.969Z,20
2017-07-07T03:51:31.290Z,20
2017-07-07T03:51:51.601Z,20
2017-07-07T03:52:11.880Z,20
2017-07-07T03:52:32.244Z,20
2017-07-07T03:52:52.512Z,25
2017-07-07T03:53:12.882Z,25
2017-07-07T03:53:33.246Z,25
2017-07-07T03:53:53.502Z,25
2017-07-07T03:54:13.770Z,25
2017-07-07T03:54:34.114Z,25
2017-07-07T03:54:54.389Z,25
2017-07-07T03:55:14.663Z,25
2017-07-07T03:55:34.972Z,25
2017-07-07T03:55:55.247Z,30
2017-07-07T03:56:15.524Z,30
2017-07-07T03:56:35.807Z,30
2017-07-07T03:56:56.068Z,30
2017-07-07T03:57:16.904Z,30
2017-07-07T03:57:37.166Z,35
2017-07-07T03:57:57.530Z,35
2017-07-07T03:58:17.805Z,35
2017-07-07T03:58:38.073Z,35
2017-07-07T03:58:58.346Z,35
2017-07-07T03:59:18.654Z,35
2017-07-07T03:59:38.933Z,40
2017-07-07T03:59:59.206Z,40
2017-07-07T04:00:19.475Z,40
2017-07-07T04:00:39.748Z,40
2017-07-07T04:01:00.015Z,40
2017-07-07T04:01:20.298Z,40
2017-07-07T04:01:40.642Z,45
2017-07-07T04:02:00.906Z,45
2017-07-07T04:02:21.169Z,45
2017-07-07T04:02:41.439Z,45
2017-07-07T04:03:01.733Z,45
2017-07-07T04:03:22.008Z,50
2017-07-07T04:03:42.285Z,50
2017-07-07T04:04:02.644Z,50
2017-07-07T04:04:22.988Z,50
2017-07-07T04:04:43.285Z,50
2017-07-07T04:05:03.569Z,50
2017-07-07T04:05:23.840Z,55
2017-07-07T04:05:44.205Z,55
2017-07-07T04:06:04.456Z,50
2017-07-07T04:06:24.736Z,50
2017-07-07T04:06:45.021Z,50
2017-07-07T04:07:05.325Z,50
2017-07-07T04:07:25.639Z,50
2017-07-07T04:07:45.906Z,50
2017-07-07T04:08:06.173Z,50
2017-07-07T04:08:26.456Z,50
2017-07-07T04:08:46.716Z,50
2017-07-07T04:09:06.993Z,50
2017-07-07T04:09:27.319Z,50
2017-07-07T04:09:47.631Z,50
2017-07-07T04:10:07.897Z,55
2017-07-07T04:10:28.161Z,55
2017-07-07T04:10:48.418Z,55
2017-07-07T04:11:08.714Z,55
2017-07-07T04:11:29.027Z,55
2017-07-07T04:11:49.301Z,55
2017-07-07T04:12:09.584Z,60
2017-07-07T04:12:29.896Z,60
2017-07-07T04:12:50.173Z,60
2017-07-07T04:13:10.454Z,60
2017-07-07T04:13:30.734Z,65
2017-07-07T04:13:51.022Z,60
2017-07-07T04:14:11.293Z,60
2017-07-07T04:14:31.606Z,60
2017-07-07T04:14:51.914Z,60
2017-07-07T04:15:12.290Z,60
2017-07-07T04:15:32.514Z,60
2017-07-07T04:15:52.822Z,55
2017-07-07T04:16:13.100Z,55
2017-07-07T04:16:33.410Z,55
2017-07-07T04:16:53.789Z,55
2017-07-07T04:17:14.118Z,55
2017-07-07T04:17:34.462Z,55
2017-07-07T04:17:54.802Z,55
2017-07-07T04:18:15.074Z,55
2017-07-07T04:18:35.392Z,55
2017-07-07T04:18:55.655Z,55
2017-07-07T04:19:15.959Z,55
2017-07-07T04:19:36.308Z,55
2017-07-07T04:19:56.585Z,50
2017-07-07T04:20:16.847Z,50
2017-07-07T04:20:37.105Z,50
2017-07-07T04:20:57.419Z,50
2017-07-07T04:21:17.684Z,50
2017-07-07T04:21:38.027Z,50
2017-07-07T04:21:58.303Z,45
2017-07-07T04:22:18.606Z,45
2017-07-07T04:22:38.876Z,45
2017-07-07T04:22:59.257Z,45
2017-07-07T04:23:19.585Z,45
2017-07-07T04:23:39.834Z,45
2017-07-07T04:24:00.169Z,40
2017-07-07T04:24:20.451Z,40
2017-07-07T04:24:40.739Z,40
2017-07-07T04:25:00.706Z,40
2017-07-07T04:25:21.001Z,40
2017-07-07T04:25:41.271Z,40
2017-07-07T04:26:01.530Z,40
2017-07-07T04:26:21.791Z,35
2017-07-07T04:26:42.145Z,35
2017-07-07T04:27:02.423Z,35
2017-07-07T04:27:22.750Z,35
2017-07-07T04:27:43.047Z,35
2017-07-07T04:28:03.335Z,35
2017-07-07T04:28:23.613Z,35
2017-07-07T04:28:43.868Z,35
2017-07-07T04:29:04.139Z,35
2017-07-07T04:29:24.488Z,35
2017-07-07T04:29:44.773Z,35
2017-07-07T04:30:05.034Z,35
2017-07-07T04:30:25.291Z,35
2017-07-07T04:30:45.582Z,35
2017-07-07T04:31:05.897Z,40
2017-07-07T04:31:26.172Z,40
2017-07-07T04:31:46.463Z,40
2017-07-07T04:32:06.760Z,40
2017-07-07T04:32:27.132Z,40
2017-07-07T04:32:47.411Z,45
2017-07-07T04:33:07.741Z,45
2017-07-07T04:33:28.021Z,45
2017-07-07T04:33:48.282Z,45
2017-07-07T04:34:08.584Z,50
2017-07-07T04:34:28.898Z,50
2017-07-07T04:34:49.181Z,50
2017-07-07T04:35:09.450Z,55
2017-07-07T04:35:29.708Z,55
2017-07-07T04:35:49.982Z,55
2017-07-07T04:36:10.280Z,55
2017-07-07T04:36:30.593Z,55
2017-07-07T04:36:50.898Z,55
2017-07-07T04:37:11.190Z,55
2017-07-07T04:37:31.453Z,55
2017-07-07T04:37:51.757Z,55
2017-07-07T04:38:12.069Z,55
2017-07-07T04:38:32.334Z,55
2017-07-07T04:38:52.616Z,55
2017-07-07T04:39:12.938Z,55
2017-07-07T04:39:33.196Z,55
2017-07-07T04:39:53.461Z,55
2017-07-07T04:40:13.786Z,55
2017-07-07T04:40:34.119Z,55
2017-07-07T04:40:54.390Z,55
2017-07-07T04:41:14.692Z,55
2017-07-07T04:41:35.024Z,55
2017-07-07T04:41:55.374Z,55
2017-07-07T04:42:15.632Z,50
2017-07-07T04:42:35.949Z,50
2017-07-07T04:42:56.274Z,55
2017-07-07T04:43:16.630Z,55
2017-07-07T04:43:36.902Z,50
2017-07-07T04:43:57.201Z,55
2017-07-07T04:44:17.514Z,55
2017-07-07T04:44:37.882Z,55
2017-07-07T04:44:58.215Z,60
2017-07-07T04:45:18.493Z,60
2017-07-07T04:45:38.754Z,55
2017-07-07T04:45:59.037Z,60
2017-07-07T04:46:19.329Z,55
2017-07-07T04:46:39.604Z,55
2017-07-07T04:46:59.939Z,55
2017-07-07T04:47:20.206Z,55
2017-07-07T04:47:40.522Z,55
2017-07-07T04:48:00.852Z,55
2017-07-07T04:48:21.184Z,55
2017-07-07T04:48:41.468Z,55
2017-07-07T04:49:01.726Z,60
2017-07-07T04:49:21.993Z,55
2017-07-07T04:49:42.283Z,55
2017-07-07T04:50:02.562Z,55
2017-07-07T04:50:22.832Z,55
2017-07-07T04:50:43.095Z,55
2017-07-07T04:51:03.367Z,55
2017-07-07T04:51:23.677Z,55
2017-07-07T04:51:43.954Z,55
2017-07-07T04:52:04.216Z,55
2017-07-07T04:52:24.493Z,55
2017-07-07T04:52:44.847Z,60
2017-07-07T04:53:05.124Z,60
2017-07-07T04:53:25.394Z,60
2017-07-07T04:53:45.695Z,60
2017-07-07T04:54:05.986Z,60
2017-07-07T04:54:26.279Z,60
2017-07-07T04:54:46.533Z,60
2017-07-07T04:55:06.806Z,60
2017-07-07T04:55:27.085Z,60
2017-07-07T04:55:47.392Z,55
2017-07-07T04:56:07.677Z,55
2017-07-07T04:56:28.005Z,55
2017-07-07T04:56:48.268Z,55
2017-07-07T04:57:08.621Z,55
2017-07-07T04:57:28.919Z,55
2017-07-07T04:57:49.185Z,55
2017-07-07T04:58:09.563Z,50
2017-07-07T04:58:29.828Z,50